sensor_id;sensor_type;location;lat;lon;timestamp;pressure;altitude;pressure_sealevel;temperature;humidity
43553;BME280;29153;42.696;23.218;2023-04-27T00:02:19;94187.58;;;7.07;64.74
43553;BME280;29153;42.696;23.218;2023-04-27T00:04:47;94185.98;;;7.06;65.05
43553;BME280;29153;42.696;23.218;2023-04-27T00:07:14;94187.00;;;6.88;65.66
43553;BME280;29153;42.696;23.218;2023-04-27T00:09:42;94184.09;;;6.86;66.59
43553;BME280;29153;42.696;23.218;2023-04-27T00:12:09;94177.74;;;6.75;66.93
43553;BME280;29153;42.696;23.218;2023-04-27T00:14:37;94183.00;;;6.75;65.71
43553;BME280;29153;42.696;23.218;2023-04-27T00:17:04;94189.28;;;6.69;66.04
43553;BME280;29153;42.696;23.218;2023-04-27T00:19:32;94188.77;;;6.69;66.21
43553;BME280;29153;42.696;23.218;2023-04-27T00:22:00;94191.64;;;6.68;67.56
43553;BME280;29153;42.696;23.218;2023-04-27T00:24:27;94194.00;;;6.62;67.69
43553;BME280;29153;42.696;23.218;2023-04-27T00:26:55;94188.71;;;6.54;67.51
43553;BME280;29153;42.696;23.218;2023-04-27T00:29:23;94196.30;;;6.48;67.23
43553;BME280;29153;42.696;23.218;2023-04-27T00:31:50;94199.75;;;6.54;66.11
43553;BME280;29153;42.696;23.218;2023-04-27T00:34:17;94189.97;;;6.42;68.10
43553;BME280;29153;42.696;23.218;2023-04-27T00:36:45;94191.53;;;6.43;67.27
43553;BME280;29153;42.696;23.218;2023-04-27T00:39:12;94192.53;;;6.31;67.39
43553;BME280;29153;42.696;23.218;2023-04-27T00:41:40;94191.49;;;6.35;67.23
43553;BME280;29153;42.696;23.218;2023-04-27T00:44:07;94159.20;;;6.00;67.27
43553;BME280;29153;42.696;23.218;2023-04-27T00:46:35;94189.07;;;6.26;67.26
43553;BME280;29153;42.696;23.218;2023-04-27T00:49:03;94190.03;;;6.10;67.84
43553;BME280;29153;42.696;23.218;2023-04-27T00:51:31;94185.84;;;6.11;69.09
43553;BME280;29153;42.696;23.218;2023-04-27T00:54:00;94180.78;;;6.02;67.77
43553;BME280;29153;42.696;23.218;2023-04-27T00:56:27;94187.08;;;6.04;68.46
43553;BME280;29153;42.696;23.218;2023-04-27T00:58:54;94188.07;;;5.92;69.10
43553;BME280;29153;42.696;23.218;2023-04-27T01:01:22;94191.14;;;5.84;69.43
43553;BME280;29153;42.696;23.218;2023-04-27T01:03:50;94190.53;;;5.75;69.68
43553;BME280;29153;42.696;23.218;2023-04-27T01:06:18;94194.19;;;5.71;71.01
43553;BME280;29153;42.696;23.218;2023-04-27T01:08:45;94193.64;;;5.69;69.26
43553;BME280;29153;42.696;23.218;2023-04-27T01:11:13;94192.03;;;5.63;71.61
43553;BME280;29153;42.696;23.218;2023-04-27T01:13:41;94195.69;;;5.62;70.24
43553;BME280;29153;42.696;23.218;2023-04-27T01:16:08;94190.91;;;5.57;70.86
43553;BME280;29153;42.696;23.218;2023-04-27T01:18:36;94163.95;;;5.37;71.60
43553;BME280;29153;42.696;23.218;2023-04-27T01:21:06;94197.18;;;5.50;71.07
43553;BME280;29153;42.696;23.218;2023-04-27T01:23:33;94192.10;;;5.41;72.30
43553;BME280;29153;42.696;23.218;2023-04-27T01:26:01;94193.59;;;5.32;73.20
43553;BME280;29153;42.696;23.218;2023-04-27T01:28:28;94200.66;;;5.29;72.42
43553;BME280;29153;42.696;23.218;2023-04-27T01:30:56;94202.03;;;5.34;72.83
43553;BME280;29153;42.696;23.218;2023-04-27T01:33:24;94198.20;;;5.18;73.04
43553;BME280;29153;42.696;23.218;2023-04-27T01:35:51;94203.18;;;5.19;73.12
43553;BME280;29153;42.696;23.218;2023-04-27T01:38:19;94201.64;;;5.23;73.35
43553;BME280;29153;42.696;23.218;2023-04-27T01:40:48;94200.27;;;5.18;74.92
43553;BME280;29153;42.696;23.218;2023-04-27T01:43:16;94205.44;;;5.08;74.48
43553;BME280;29153;42.696;23.218;2023-04-27T01:45:43;94199.91;;;5.07;74.73
43553;BME280;29153;42.696;23.218;2023-04-27T01:48:11;94201.16;;;5.02;76.49
43553;BME280;29153;42.696;23.218;2023-04-27T01:50:38;94203.78;;;5.02;76.30
43553;BME280;29153;42.696;23.218;2023-04-27T01:53:06;94206.17;;;5.03;76.10
43553;BME280;29153;42.696;23.218;2023-04-27T01:55:33;94208.23;;;4.99;75.31
43553;BME280;29153;42.696;23.218;2023-04-27T01:58:01;94201.62;;;4.96;76.90
43553;BME280;29153;42.696;23.218;2023-04-27T02:00:28;94199.72;;;4.89;77.83
43553;BME280;29153;42.696;23.218;2023-04-27T02:02:56;94196.06;;;4.90;78.82
43553;BME280;29153;42.696;23.218;2023-04-27T02:05:25;94200.28;;;4.91;79.66
43553;BME280;29153;42.696;23.218;2023-04-27T02:07:53;94204.16;;;4.65;80.05
43553;BME280;29153;42.696;23.218;2023-04-27T02:10:21;94198.46;;;4.70;80.71
43553;BME280;29153;42.696;23.218;2023-04-27T02:12:48;94204.11;;;4.62;81.84
43553;BME280;29153;42.696;23.218;2023-04-27T02:15:16;94199.92;;;4.61;82.67
43553;BME280;29153;42.696;23.218;2023-04-27T02:17:43;94207.89;;;4.49;83.10
43553;BME280;29153;42.696;23.218;2023-04-27T02:20:12;94207.56;;;4.43;83.55
43553;BME280;29153;42.696;23.218;2023-04-27T02:22:44;94210.79;;;4.50;84.42
43553;BME280;29153;42.696;23.218;2023-04-27T02:25:12;94209.34;;;4.59;83.67
43553;BME280;29153;42.696;23.218;2023-04-27T02:27:41;94209.41;;;4.65;82.77
43553;BME280;29153;42.696;23.218;2023-04-27T02:30:10;94209.72;;;4.71;82.06
43553;BME280;29153;42.696;23.218;2023-04-27T02:32:37;94218.75;;;4.80;79.96
43553;BME280;29153;42.696;23.218;2023-04-27T02:35:05;94215.51;;;4.92;80.14
43553;BME280;29153;42.696;23.218;2023-04-27T02:37:34;94216.41;;;5.05;80.92
43553;BME280;29153;42.696;23.218;2023-04-27T02:40:02;94221.64;;;5.02;78.99
43553;BME280;29153;42.696;23.218;2023-04-27T02:42:30;94223.53;;;5.07;77.61
43553;BME280;29153;42.696;23.218;2023-04-27T02:44:58;94226.16;;;5.07;77.69
43553;BME280;29153;42.696;23.218;2023-04-27T02:47:25;94228.11;;;5.17;77.04
43553;BME280;29153;42.696;23.218;2023-04-27T02:49:53;94225.49;;;5.19;76.59
43553;BME280;29153;42.696;23.218;2023-04-27T02:52:21;94237.88;;;5.21;73.68
43553;BME280;29153;42.696;23.218;2023-04-27T02:54:48;94232.63;;;5.24;74.32
43553;BME280;29153;42.696;23.218;2023-04-27T02:57:16;94233.96;;;5.26;75.61
43553;BME280;29153;42.696;23.218;2023-04-27T02:59:43;94235.08;;;5.30;74.48
43553;BME280;29153;42.696;23.218;2023-04-27T03:02:11;94242.40;;;5.28;73.84
43553;BME280;29153;42.696;23.218;2023-04-27T03:04:38;94246.57;;;5.27;73.37
43553;BME280;29153;42.696;23.218;2023-04-27T03:07:05;94244.45;;;5.24;72.73
43553;BME280;29153;42.696;23.218;2023-04-27T03:09:33;94254.55;;;5.34;71.06
43553;BME280;29153;42.696;23.218;2023-04-27T03:12:00;94252.40;;;5.31;71.96
43553;BME280;29153;42.696;23.218;2023-04-27T03:14:28;94251.14;;;5.36;72.35
43553;BME280;29153;42.696;23.218;2023-04-27T03:16:55;94255.25;;;5.27;72.38
43553;BME280;29153;42.696;23.218;2023-04-27T03:19:23;94251.09;;;5.31;73.21
43553;BME280;29153;42.696;23.218;2023-04-27T03:21:50;94254.44;;;5.24;75.36
43553;BME280;29153;42.696;23.218;2023-04-27T03:24:18;94211.76;;;4.88;74.93
43553;BME280;29153;42.696;23.218;2023-04-27T03:26:46;94256.98;;;5.17;75.23
43553;BME280;29153;42.696;23.218;2023-04-27T03:29:13;94258.69;;;5.06;76.20
43553;BME280;29153;42.696;23.218;2023-04-27T03:31:41;94274.16;;;5.05;73.94
43553;BME280;29153;42.696;23.218;2023-04-27T03:34:09;94268.44;;;5.08;73.19
43553;BME280;29153;42.696;23.218;2023-04-27T03:36:36;94265.30;;;5.09;74.32
43553;BME280;29153;42.696;23.218;2023-04-27T03:39:04;94269.75;;;5.08;74.84
43553;BME280;29153;42.696;23.218;2023-04-27T03:41:31;94272.83;;;5.02;73.23
43553;BME280;29153;42.696;23.218;2023-04-27T03:43:59;94265.09;;;4.91;74.29
43553;BME280;29153;42.696;23.218;2023-04-27T03:46:26;94272.55;;;4.80;75.06
43553;BME280;29153;42.696;23.218;2023-04-27T03:48:54;94270.06;;;4.71;76.51
43553;BME280;29153;42.696;23.218;2023-04-27T03:51:21;94276.67;;;4.73;75.25
43553;BME280;29153;42.696;23.218;2023-04-27T03:53:49;94270.70;;;4.78;75.33
43553;BME280;29153;42.696;23.218;2023-04-27T03:56:16;94285.08;;;4.75;76.78
43553;BME280;29153;42.696;23.218;2023-04-27T03:58:44;94281.69;;;4.75;75.21
43553;BME280;29153;42.696;23.218;2023-04-27T04:01:12;94286.44;;;4.78;75.56
43553;BME280;29153;42.696;23.218;2023-04-27T04:03:40;94285.34;;;4.74;76.66
43553;BME280;29153;42.696;23.218;2023-04-27T04:06:07;94292.50;;;4.81;76.00
43553;BME280;29153;42.696;23.218;2023-04-27T04:08:35;94295.91;;;4.79;74.39
43553;BME280;29153;42.696;23.218;2023-04-27T04:11:02;94305.92;;;4.84;71.92
43553;BME280;29153;42.696;23.218;2023-04-27T04:13:30;94315.41;;;4.88;72.49
43553;BME280;29153;42.696;23.218;2023-04-27T04:16:06;94314.17;;;4.93;72.47
43553;BME280;29153;42.696;23.218;2023-04-27T04:18:34;94316.05;;;4.95;71.79
43553;BME280;29153;42.696;23.218;2023-04-27T04:21:02;94316.34;;;4.96;72.17
43553;BME280;29153;42.696;23.218;2023-04-27T04:23:29;94320.88;;;5.03;71.95
43553;BME280;29153;42.696;23.218;2023-04-27T04:25:58;94322.11;;;5.17;71.65
43553;BME280;29153;42.696;23.218;2023-04-27T04:28:27;94320.06;;;5.22;70.80
43553;BME280;29153;42.696;23.218;2023-04-27T04:30:54;94328.60;;;5.34;69.48
43553;BME280;29153;42.696;23.218;2023-04-27T04:33:22;94326.93;;;5.49;68.19
43553;BME280;29153;42.696;23.218;2023-04-27T04:35:51;94328.58;;;5.56;70.29
43553;BME280;29153;42.696;23.218;2023-04-27T04:38:22;94331.23;;;5.61;69.11
43553;BME280;29153;42.696;23.218;2023-04-27T04:40:50;94338.48;;;5.73;68.52
43553;BME280;29153;42.696;23.218;2023-04-27T04:43:18;94340.96;;;5.84;68.28
43553;BME280;29153;42.696;23.218;2023-04-27T04:45:46;94343.91;;;5.88;65.69
43553;BME280;29153;42.696;23.218;2023-04-27T04:48:14;94349.45;;;5.89;66.52
43553;BME280;29153;42.696;23.218;2023-04-27T04:50:43;94335.11;;;6.02;69.00
43553;BME280;29153;42.696;23.218;2023-04-27T04:53:10;94341.05;;;6.21;66.26
43553;BME280;29153;42.696;23.218;2023-04-27T04:55:38;94343.03;;;6.38;66.12
43553;BME280;29153;42.696;23.218;2023-04-27T04:58:06;94351.02;;;6.51;65.55
43553;BME280;29153;42.696;23.218;2023-04-27T05:00:34;94356.32;;;6.54;65.15
43553;BME280;29153;42.696;23.218;2023-04-27T05:03:02;94361.92;;;6.65;65.45
43553;BME280;29153;42.696;23.218;2023-04-27T05:05:29;94366.90;;;6.64;64.59
43553;BME280;29153;42.696;23.218;2023-04-27T05:07:57;94365.75;;;6.84;64.03
43553;BME280;29153;42.696;23.218;2023-04-27T05:10:24;94373.28;;;7.15;63.84
43553;BME280;29153;42.696;23.218;2023-04-27T05:12:52;94364.18;;;7.38;64.33
43553;BME280;29153;42.696;23.218;2023-04-27T05:15:19;94368.34;;;8.06;63.84
43553;BME280;29153;42.696;23.218;2023-04-27T05:17:47;94384.02;;;8.63;57.92
43553;BME280;29153;42.696;23.218;2023-04-27T05:20:14;94386.64;;;8.60;58.05
43553;BME280;29153;42.696;23.218;2023-04-27T05:22:42;94386.38;;;8.37;59.24
43553;BME280;29153;42.696;23.218;2023-04-27T05:25:09;94379.50;;;8.43;61.08
43553;BME280;29153;42.696;23.218;2023-04-27T05:27:37;94388.73;;;8.36;60.75
43553;BME280;29153;42.696;23.218;2023-04-27T05:30:05;94393.67;;;8.09;61.06
43553;BME280;29153;42.696;23.218;2023-04-27T05:32:33;94396.33;;;8.04;62.65
43553;BME280;29153;42.696;23.218;2023-04-27T05:35:02;94382.58;;;8.05;62.80
43553;BME280;29153;42.696;23.218;2023-04-27T05:37:30;94392.39;;;8.17;63.17
43553;BME280;29153;42.696;23.218;2023-04-27T05:39:58;94393.42;;;8.03;62.96
43553;BME280;29153;42.696;23.218;2023-04-27T05:42:25;94402.65;;;8.03;62.30
43553;BME280;29153;42.696;23.218;2023-04-27T05:44:53;94406.27;;;7.85;61.57
43553;BME280;29153;42.696;23.218;2023-04-27T05:47:20;94400.71;;;7.73;63.62
43553;BME280;29153;42.696;23.218;2023-04-27T05:49:54;94400.93;;;7.67;62.65
43553;BME280;29153;42.696;23.218;2023-04-27T05:52:21;94396.93;;;7.52;65.54
43553;BME280;29153;42.696;23.218;2023-04-27T05:54:50;94395.41;;;7.68;63.97
43553;BME280;29153;42.696;23.218;2023-04-27T05:57:18;94398.02;;;7.66;66.02
43553;BME280;29153;42.696;23.218;2023-04-27T05:59:45;94402.58;;;7.78;63.87
43553;BME280;29153;42.696;23.218;2023-04-27T06:02:13;94395.14;;;7.65;65.82
43553;BME280;29153;42.696;23.218;2023-04-27T06:04:42;94402.81;;;7.79;60.52
43553;BME280;29153;42.696;23.218;2023-04-27T06:07:11;94407.33;;;7.78;62.67
43553;BME280;29153;42.696;23.218;2023-04-27T06:09:38;94402.84;;;7.84;63.46
43553;BME280;29153;42.696;23.218;2023-04-27T06:12:07;94403.43;;;8.09;61.58
43553;BME280;29153;42.696;23.218;2023-04-27T06:14:35;94401.63;;;8.19;61.45
43553;BME280;29153;42.696;23.218;2023-04-27T06:17:03;94405.64;;;8.30;61.12
43553;BME280;29153;42.696;23.218;2023-04-27T06:19:31;94408.80;;;8.37;58.82
43553;BME280;29153;42.696;23.218;2023-04-27T06:21:58;94404.61;;;8.71;60.79
43553;BME280;29153;42.696;23.218;2023-04-27T06:24:26;94403.22;;;9.24;59.77
43553;BME280;29153;42.696;23.218;2023-04-27T06:26:54;94396.02;;;9.57;57.57
43553;BME280;29153;42.696;23.218;2023-04-27T06:29:22;94402.31;;;9.69;55.03
43553;BME280;29153;42.696;23.218;2023-04-27T06:31:49;94397.21;;;9.85;56.86
43553;BME280;29153;42.696;23.218;2023-04-27T06:34:17;94392.92;;;9.99;57.11
43553;BME280;29153;42.696;23.218;2023-04-27T06:36:45;94391.29;;;10.55;55.01
43553;BME280;29153;42.696;23.218;2023-04-27T06:39:12;94386.92;;;10.72;57.34
43553;BME280;29153;42.696;23.218;2023-04-27T06:41:40;94399.23;;;10.89;52.43
43553;BME280;29153;42.696;23.218;2023-04-27T06:44:07;94393.91;;;10.60;53.46
43553;BME280;29153;42.696;23.218;2023-04-27T06:46:35;94392.72;;;10.76;56.70
43553;BME280;29153;42.696;23.218;2023-04-27T06:49:02;94380.38;;;10.93;54.13
43553;BME280;29153;42.696;23.218;2023-04-27T06:51:30;94386.20;;;11.24;54.85
43553;BME280;29153;42.696;23.218;2023-04-27T06:53:57;94376.77;;;11.63;51.54
43553;BME280;29153;42.696;23.218;2023-04-27T06:56:25;94377.75;;;12.14;49.90
43553;BME280;29153;42.696;23.218;2023-04-27T06:58:52;94377.75;;;12.14;49.90
43553;BME280;29153;42.696;23.218;2023-04-27T07:01:20;94374.27;;;12.35;52.21
43553;BME280;29153;42.696;23.218;2023-04-27T07:03:47;94373.63;;;12.59;52.85
43553;BME280;29153;42.696;23.218;2023-04-27T07:06:15;94373.63;;;12.59;52.85
43553;BME280;29153;42.696;23.218;2023-04-27T07:08:42;94372.89;;;12.56;47.90
43553;BME280;29153;42.696;23.218;2023-04-27T07:11:10;94377.09;;;12.60;49.65
43553;BME280;29153;42.696;23.218;2023-04-27T07:13:37;94365.66;;;12.59;51.23
43553;BME280;29153;42.696;23.218;2023-04-27T07:16:05;94367.00;;;12.75;48.89
43553;BME280;29153;42.696;23.218;2023-04-27T07:18:33;94369.30;;;12.47;47.80
43553;BME280;29153;42.696;23.218;2023-04-27T07:21:00;94375.08;;;12.33;46.78
43553;BME280;29153;42.696;23.218;2023-04-27T07:23:28;94374.88;;;12.29;47.71
43553;BME280;29153;42.696;23.218;2023-04-27T07:25:56;94373.02;;;12.49;47.78
43553;BME280;29153;42.696;23.218;2023-04-27T07:28:24;94366.56;;;12.36;49.31
43553;BME280;29153;42.696;23.218;2023-04-27T07:30:53;94372.77;;;12.45;47.47
43553;BME280;29153;42.696;23.218;2023-04-27T07:33:22;94370.77;;;12.37;48.90
43553;BME280;29153;42.696;23.218;2023-04-27T07:35:50;94363.31;;;12.39;50.39
43553;BME280;29153;42.696;23.218;2023-04-27T07:38:19;94367.73;;;12.62;50.94
43553;BME280;29153;42.696;23.218;2023-04-27T07:40:46;94363.11;;;13.19;47.98
43553;BME280;29153;42.696;23.218;2023-04-27T07:43:15;94368.97;;;13.35;47.73
43553;BME280;29153;42.696;23.218;2023-04-27T07:45:43;94363.44;;;13.45;42.98
43553;BME280;29153;42.696;23.218;2023-04-27T07:48:11;94366.50;;;13.65;44.56
43553;BME280;29153;42.696;23.218;2023-04-27T07:50:38;94368.05;;;13.39;44.46
43553;BME280;29153;42.696;23.218;2023-04-27T07:53:06;94363.97;;;13.44;50.26
43553;BME280;29153;42.696;23.218;2023-04-27T07:55:33;94359.91;;;13.90;45.48
43553;BME280;29153;42.696;23.218;2023-04-27T07:58:01;94359.91;;;13.90;45.48
43553;BME280;29153;42.696;23.218;2023-04-27T08:00:29;94361.19;;;14.42;44.95
43553;BME280;29153;42.696;23.218;2023-04-27T08:02:57;94358.80;;;14.54;42.96
43553;BME280;29153;42.696;23.218;2023-04-27T08:05:24;94365.58;;;14.49;42.24
43553;BME280;29153;42.696;23.218;2023-04-27T08:07:52;94362.79;;;14.99;42.33
43553;BME280;29153;42.696;23.218;2023-04-27T08:10:19;94357.65;;;14.91;43.55
43553;BME280;29153;42.696;23.218;2023-04-27T08:12:47;94366.08;;;15.38;44.02
43553;BME280;29153;42.696;23.218;2023-04-27T08:15:14;94359.05;;;15.62;41.07
43553;BME280;29153;42.696;23.218;2023-04-27T08:17:42;94354.02;;;15.29;40.38
43553;BME280;29153;42.696;23.218;2023-04-27T08:20:10;94351.03;;;15.53;42.16
43553;BME280;29153;42.696;23.218;2023-04-27T08:22:40;94362.00;;;15.71;39.21
43553;BME280;29153;42.696;23.218;2023-04-27T08:25:08;94354.10;;;16.14;39.23
43553;BME280;29153;42.696;23.218;2023-04-27T08:27:38;94362.84;;;16.80;40.17
43553;BME280;29153;42.696;23.218;2023-04-27T08:30:09;94356.05;;;16.91;39.32
43553;BME280;29153;42.696;23.218;2023-04-27T08:32:36;94351.61;;;17.12;41.13
43553;BME280;29153;42.696;23.218;2023-04-27T08:35:03;94354.31;;;17.36;43.11
43553;BME280;29153;42.696;23.218;2023-04-27T08:37:31;94349.41;;;17.14;39.70
43553;BME280;29153;42.696;23.218;2023-04-27T08:39:59;94345.80;;;16.33;39.70
43553;BME280;29153;42.696;23.218;2023-04-27T08:42:26;94350.51;;;16.27;37.56
43553;BME280;29153;42.696;23.218;2023-04-27T08:44:56;94348.34;;;16.55;40.47
43553;BME280;29153;42.696;23.218;2023-04-27T08:47:23;94345.36;;;16.65;42.13
43553;BME280;29153;42.696;23.218;2023-04-27T08:49:51;94355.95;;;15.97;38.24
43553;BME280;29153;42.696;23.218;2023-04-27T08:52:18;94357.38;;;15.55;39.13
43553;BME280;29153;42.696;23.218;2023-04-27T08:54:46;94347.77;;;16.21;41.84
43553;BME280;29153;42.696;23.218;2023-04-27T08:57:14;94348.78;;;16.31;38.88
43553;BME280;29153;42.696;23.218;2023-04-27T08:59:42;94351.94;;;15.97;38.53
43553;BME280;29153;42.696;23.218;2023-04-27T09:02:20;94357.14;;;15.12;38.63
43553;BME280;29153;42.696;23.218;2023-04-27T09:04:47;94346.09;;;15.16;41.06
43553;BME280;29153;42.696;23.218;2023-04-27T09:07:17;94346.09;;;15.16;41.06
43553;BME280;29153;42.696;23.218;2023-04-27T09:09:45;94358.94;;;14.72;41.64
43553;BME280;29153;42.696;23.218;2023-04-27T09:12:20;94340.30;;;15.33;41.54
43553;BME280;29153;42.696;23.218;2023-04-27T09:14:59;94340.30;;;15.33;41.54
43553;BME280;29153;42.696;23.218;2023-04-27T09:17:28;94343.41;;;15.58;36.10
43553;BME280;29153;42.696;23.218;2023-04-27T09:20:07;94343.84;;;15.20;43.70
43553;BME280;29153;42.696;23.218;2023-04-27T09:22:45;94347.75;;;15.03;39.89
43553;BME280;29153;42.696;23.218;2023-04-27T09:25:24;94345.88;;;14.34;40.42
43553;BME280;29153;42.696;23.218;2023-04-27T09:27:51;94347.73;;;14.11;44.21
43553;BME280;29153;42.696;23.218;2023-04-27T09:30:19;94341.08;;;13.59;43.15
43553;BME280;29153;42.696;23.218;2023-04-27T09:32:51;94337.41;;;13.83;46.07
43553;BME280;29153;42.696;23.218;2023-04-27T09:35:24;94338.17;;;13.72;40.68
43553;BME280;29153;42.696;23.218;2023-04-27T09:37:53;94336.77;;;13.75;41.96
43553;BME280;29153;42.696;23.218;2023-04-27T09:40:24;94334.48;;;14.56;47.05
43553;BME280;29153;42.696;23.218;2023-04-27T09:42:54;94332.81;;;14.71;40.46
43553;BME280;29153;42.696;23.218;2023-04-27T09:45:27;94332.81;;;14.71;40.46
43553;BME280;29153;42.696;23.218;2023-04-27T09:47:55;94323.16;;;14.39;39.15
43553;BME280;29153;42.696;23.218;2023-04-27T09:50:22;94314.03;;;14.54;42.44
43553;BME280;29153;42.696;23.218;2023-04-27T09:52:49;94317.44;;;14.99;40.74
43553;BME280;29153;42.696;23.218;2023-04-27T09:55:20;94319.58;;;15.19;38.86
43553;BME280;29153;42.696;23.218;2023-04-27T10:03:50;94306.00;;;16.14;43.38
43553;BME280;29153;42.696;23.218;2023-04-27T10:08:59;94298.31;;;15.76;37.16
43553;BME280;29153;42.696;23.218;2023-04-27T10:11:38;94301.13;;;15.99;44.20
43553;BME280;29153;42.696;23.218;2023-04-27T10:14:15;94308.23;;;15.56;37.92
43553;BME280;29153;42.696;23.218;2023-04-27T10:16:53;94302.05;;;14.96;40.25
43553;BME280;29153;42.696;23.218;2023-04-27T10:19:18;94309.84;;;14.62;38.60
43553;BME280;29153;42.696;23.218;2023-04-27T10:22:01;94299.45;;;14.38;38.59
43553;BME280;29153;42.696;23.218;2023-04-27T10:24:34;94288.95;;;14.30;39.33
43553;BME280;29153;42.696;23.218;2023-04-27T10:27:07;94306.63;;;14.15;38.68
43553;BME280;29153;42.696;23.218;2023-04-27T10:29:38;94310.42;;;13.87;39.52
43553;BME280;29153;42.696;23.218;2023-04-27T10:32:12;94312.72;;;13.52;40.56
43553;BME280;29153;42.696;23.218;2023-04-27T10:34:40;94312.72;;;13.52;40.56
43553;BME280;29153;42.696;23.218;2023-04-27T10:37:11;94307.27;;;13.98;45.67
43553;BME280;29153;42.696;23.218;2023-04-27T10:39:41;94303.10;;;14.64;40.08
43553;BME280;29153;42.696;23.218;2023-04-27T10:42:09;94302.77;;;15.10;39.61
43553;BME280;29153;42.696;23.218;2023-04-27T10:44:37;94308.39;;;14.67;37.42
43553;BME280;29153;42.696;23.218;2023-04-27T10:47:15;94301.72;;;14.67;37.10
43553;BME280;29153;42.696;23.218;2023-04-27T10:49:45;94310.14;;;14.71;38.71
43553;BME280;29153;42.696;23.218;2023-04-27T10:52:13;94305.55;;;14.27;36.75
43553;BME280;29153;42.696;23.218;2023-04-27T10:54:47;94295.98;;;14.15;37.76
43553;BME280;29153;42.696;23.218;2023-04-27T10:57:11;94295.98;;;14.15;37.76
43553;BME280;29153;42.696;23.218;2023-04-27T10:59:50;94294.92;;;14.83;40.25
43553;BME280;29153;42.696;23.218;2023-04-27T11:02:25;94302.64;;;15.04;38.16
43553;BME280;29153;42.696;23.218;2023-04-27T11:04:54;94306.67;;;14.82;40.54
43553;BME280;29153;42.696;23.218;2023-04-27T11:07:24;94301.66;;;15.11;40.53
43553;BME280;29153;42.696;23.218;2023-04-27T11:09:53;94290.77;;;15.69;42.70
43553;BME280;29153;42.696;23.218;2023-04-27T11:12:21;94296.29;;;15.81;36.73
43553;BME280;29153;42.696;23.218;2023-04-27T11:14:49;94291.24;;;16.17;39.71
43553;BME280;29153;42.696;23.218;2023-04-27T11:17:27;94294.13;;;16.26;36.26
43553;BME280;29153;42.696;23.218;2023-04-27T11:19:47;94297.19;;;16.14;35.67
43553;BME280;29153;42.696;23.218;2023-04-27T11:22:15;94297.34;;;16.17;36.07
43553;BME280;29153;42.696;23.218;2023-04-27T11:24:50;94299.51;;;15.41;37.61
43553;BME280;29153;42.696;23.218;2023-04-27T11:27:18;94302.35;;;15.25;38.09
43553;BME280;29153;42.696;23.218;2023-04-27T11:29:47;94301.09;;;15.42;39.83
43553;BME280;29153;42.696;23.218;2023-04-27T11:32:22;94300.77;;;15.24;35.52
43553;BME280;29153;42.696;23.218;2023-04-27T11:34:49;94307.58;;;15.50;39.22
43553;BME280;29153;42.696;23.218;2023-04-27T11:37:24;94303.11;;;15.06;37.63
43553;BME280;29153;42.696;23.218;2023-04-27T11:39:53;94310.02;;;14.29;39.68
43553;BME280;29153;42.696;23.218;2023-04-27T11:42:24;94310.44;;;14.47;41.66
43553;BME280;29153;42.696;23.218;2023-04-27T11:45:04;94306.15;;;15.13;38.91
43553;BME280;29153;42.696;23.218;2023-04-27T11:47:30;94309.85;;;15.34;38.99
43553;BME280;29153;42.696;23.218;2023-04-27T11:50:01;94313.70;;;15.79;37.88
43553;BME280;29153;42.696;23.218;2023-04-27T11:52:34;94313.14;;;15.71;36.14
43553;BME280;29153;42.696;23.218;2023-04-27T11:55:03;94304.36;;;15.79;39.22
43553;BME280;29153;42.696;23.218;2023-04-27T11:57:32;94315.08;;;15.59;35.02
43553;BME280;29153;42.696;23.218;2023-04-27T12:00:03;94314.65;;;15.04;35.72
43553;BME280;29153;42.696;23.218;2023-04-27T12:02:32;94304.86;;;15.11;43.15
43553;BME280;29153;42.696;23.218;2023-04-27T12:05:02;94313.08;;;15.54;38.85
43553;BME280;29153;42.696;23.218;2023-04-27T12:07:31;94308.07;;;15.52;38.76
43553;BME280;29153;42.696;23.218;2023-04-27T12:09:59;94323.11;;;15.48;36.59
43553;BME280;29153;42.696;23.218;2023-04-27T12:12:27;94314.65;;;15.04;39.68
43553;BME280;29153;42.696;23.218;2023-04-27T12:14:54;94314.16;;;15.02;40.50
43553;BME280;29153;42.696;23.218;2023-04-27T12:17:23;94316.77;;;15.04;39.59
43553;BME280;29153;42.696;23.218;2023-04-27T12:19:50;94316.98;;;14.97;37.73
43553;BME280;29153;42.696;23.218;2023-04-27T12:22:18;94311.27;;;14.90;38.47
43553;BME280;29153;42.696;23.218;2023-04-27T12:24:46;94316.38;;;14.78;40.23
43553;BME280;29153;42.696;23.218;2023-04-27T12:27:13;94314.05;;;14.85;38.18
43553;BME280;29153;42.696;23.218;2023-04-27T12:29:41;94315.28;;;14.56;40.74
43553;BME280;29153;42.696;23.218;2023-04-27T12:32:08;94325.65;;;14.69;37.26
43553;BME280;29153;42.696;23.218;2023-04-27T12:34:36;94325.65;;;14.69;37.26
43553;BME280;29153;42.696;23.218;2023-04-27T12:37:04;94323.52;;;14.46;39.75
43553;BME280;29153;42.696;23.218;2023-04-27T12:39:32;94317.38;;;13.99;37.96
43553;BME280;29153;42.696;23.218;2023-04-27T12:42:00;94313.55;;;14.27;40.54
43553;BME280;29153;42.696;23.218;2023-04-27T12:44:27;94313.55;;;14.27;40.54
43553;BME280;29153;42.696;23.218;2023-04-27T12:46:55;94325.39;;;14.21;41.02
43553;BME280;29153;42.696;23.218;2023-04-27T12:49:22;94318.01;;;14.18;41.08
43553;BME280;29153;42.696;23.218;2023-04-27T12:51:51;94315.41;;;14.40;38.08
43553;BME280;29153;42.696;23.218;2023-04-27T12:54:19;94312.25;;;14.61;37.47
43553;BME280;29153;42.696;23.218;2023-04-27T12:56:46;94318.86;;;14.41;38.44
43553;BME280;29153;42.696;23.218;2023-04-27T12:59:15;94317.83;;;14.26;38.22
43553;BME280;29153;42.696;23.218;2023-04-27T13:01:43;94320.23;;;14.13;41.09
43553;BME280;29153;42.696;23.218;2023-04-27T13:04:16;94315.34;;;14.07;39.23
43553;BME280;29153;42.696;23.218;2023-04-27T13:06:41;94315.20;;;14.12;40.04
43553;BME280;29153;42.696;23.218;2023-04-27T13:09:09;94312.68;;;14.18;41.81
43553;BME280;29153;42.696;23.218;2023-04-27T13:11:37;94319.18;;;14.01;37.15